createdAt,value
2022-10-12T00:01:55.338Z,5.65
2022-10-12T00:04:22.384Z,6.45
2022-10-12T00:06:49.507Z,5.95
2022-10-12T00:09:16.656Z,5.03
2022-10-12T00:11:44.191Z,5.90
2022-10-12T00:14:11.142Z,6.25
2022-10-12T00:16:38.193Z,7.70
2022-10-12T00:19:05.175Z,6.85
2022-10-12T00:21:32.229Z,7.15
2022-10-12T00:24:01.229Z,6.50
2022-10-12T00:26:29.331Z,7.13
2022-10-12T00:29:03.250Z,6.65
2022-10-12T00:31:31.386Z,6.70
2022-10-12T00:34:01.288Z,6.80
2022-10-12T00:36:32.657Z,7.60
2022-10-12T00:39:00.534Z,7.50
2022-10-12T00:41:33.933Z,7.13
2022-10-12T00:44:01.283Z,7.03
2022-10-12T00:46:33.757Z,7.68
2022-10-12T00:49:09.614Z,7.10
2022-10-12T00:51:38.165Z,5.85
2022-10-12T00:54:08.635Z,6.72
2022-10-12T00:56:40.392Z,7.28
2022-10-12T00:59:11.139Z,6.90
2022-10-12T01:01:39.179Z,7.18
2022-10-12T01:04:06.903Z,7.18
2022-10-12T01:06:34.582Z,7.07
2022-10-12T01:09:02.461Z,6.97
2022-10-12T01:11:29.456Z,6.85
2022-10-12T01:13:57.972Z,7.13
2022-10-12T01:16:46.802Z,6.80
2022-10-12T01:19:42.451Z,6.50
2022-10-12T01:22:14.543Z,7.47
2022-10-12T01:24:53.088Z,7.10
2022-10-12T01:27:44.157Z,6.10
2022-10-12T01:30:24.952Z,6.30
2022-10-12T01:33:03.315Z,6.57
2022-10-12T01:35:51.415Z,6.72
2022-10-12T01:38:50.728Z,6.53
2022-10-12T01:41:39.219Z,6.30
2022-10-12T01:44:06.508Z,5.90
2022-10-12T01:46:33.388Z,6.88
2022-10-12T01:49:02.158Z,6.78
2022-10-12T01:51:55.525Z,6.57
2022-10-12T01:54:25.148Z,7.40
2022-10-12T01:57:09.170Z,6.95
2022-10-12T02:00:12.585Z,7.80
2022-10-12T02:03:03.686Z,7.97
2022-10-12T02:05:52.634Z,7.45
2022-10-12T02:08:32.301Z,7.57
2022-10-12T02:11:08.116Z,8.57
2022-10-12T02:13:42.475Z,7.93
2022-10-12T02:16:14.639Z,6.82
2022-10-12T02:18:49.922Z,8.05
2022-10-12T02:21:24.059Z,8.02
2022-10-12T02:23:53.294Z,7.88
2022-10-12T02:26:21.907Z,10.35
2022-10-12T02:28:50.736Z,8.80
2022-10-12T02:31:32.463Z,9.20
2022-10-12T02:34:11.619Z,8.75
2022-10-12T02:36:46.887Z,8.85
2022-10-12T02:39:20.356Z,10.05
2022-10-12T02:41:51.138Z,9.35
2022-10-12T02:44:26.303Z,8.88
2022-10-12T02:46:55.301Z,9.13
2022-10-12T02:49:26.166Z,10.23
2022-10-12T02:51:54.983Z,10.00
2022-10-12T02:54:22.104Z,10.05
2022-10-12T02:56:49.241Z,11.43
2022-10-12T02:59:18.203Z,10.82
2022-10-12T03:01:45.221Z,11.10
2022-10-12T03:04:12.197Z,11.48
2022-10-12T03:06:39.226Z,12.63
2022-10-12T03:09:06.144Z,12.18
2022-10-12T03:11:33.060Z,11.73
2022-10-12T03:14:00.174Z,12.10
2022-10-12T03:16:27.514Z,12.52
2022-10-12T03:18:54.970Z,12.27
2022-10-12T03:21:22.037Z,11.15
2022-10-12T03:23:48.940Z,10.32
2022-10-12T03:26:15.879Z,11.05
2022-10-12T03:28:42.915Z,11.48
2022-10-12T03:31:10.083Z,10.27
2022-10-12T03:33:37.097Z,11.35
2022-10-12T03:36:04.407Z,10.48
2022-10-12T03:38:31.353Z,11.02
2022-10-12T03:41:01.761Z,11.23
2022-10-12T03:43:31.303Z,11.65
2022-10-12T03:45:58.437Z,11.63
2022-10-12T03:48:25.343Z,12.07
2022-10-12T03:50:53.209Z,12.07
2022-10-12T03:53:20.669Z,14.52
2022-10-12T03:55:47.642Z,12.57
2022-10-12T03:58:14.872Z,12.65
2022-10-12T04:00:41.942Z,12.27
2022-10-12T04:03:08.832Z,13.23
2022-10-12T04:05:35.796Z,13.30
2022-10-12T04:08:02.747Z,13.55
2022-10-12T04:10:29.710Z,12.95
2022-10-12T04:12:57.628Z,12.85
2022-10-12T04:15:24.674Z,12.80
2022-10-12T04:17:51.599Z,14.10
2022-10-12T04:20:18.612Z,11.82
2022-10-12T04:22:45.612Z,12.60
2022-10-12T04:25:12.728Z,12.25
2022-10-12T04:27:40.186Z,12.27
2022-10-12T04:30:08.000Z,14.00
2022-10-12T04:32:34.971Z,12.27
2022-10-12T04:35:02.012Z,12.25
2022-10-12T04:37:29.028Z,13.88
2022-10-12T04:39:56.218Z,12.15
2022-10-12T04:42:23.093Z,15.05
2022-10-12T04:44:50.110Z,13.88
2022-10-12T04:47:17.072Z,14.60
2022-10-12T04:49:43.992Z,14.73
2022-10-12T04:52:10.951Z,13.85
2022-10-12T04:54:37.914Z,13.23
2022-10-12T04:57:04.971Z,13.90
2022-10-12T04:59:31.870Z,14.73
2022-10-12T05:01:58.963Z,13.65
2022-10-12T05:04:25.936Z,13.05
2022-10-12T05:06:52.920Z,12.98
2022-10-12T05:09:19.845Z,14.13
2022-10-12T05:11:46.778Z,13.10
2022-10-12T05:14:13.718Z,14.40
2022-10-12T05:16:40.641Z,14.25
2022-10-12T05:19:07.668Z,14.60
2022-10-12T05:21:34.809Z,16.60
2022-10-12T05:24:01.746Z,17.10
2022-10-12T05:26:28.641Z,13.93
2022-10-12T05:28:55.695Z,15.27
2022-10-12T05:31:22.764Z,14.23
2022-10-12T05:33:50.175Z,17.10
2022-10-12T05:36:17.220Z,16.33
2022-10-12T05:38:44.167Z,15.30
2022-10-12T05:41:11.230Z,14.93
2022-10-12T05:43:38.219Z,14.55
2022-10-12T05:46:05.369Z,14.65
2022-10-12T05:48:33.452Z,15.15
2022-10-12T05:51:00.510Z,15.38
2022-10-12T05:53:27.505Z,15.85
2022-10-12T05:55:57.336Z,14.93
2022-10-12T05:58:25.405Z,15.27
2022-10-12T06:00:52.849Z,16.45
2022-10-12T06:03:25.387Z,16.60
2022-10-12T06:05:53.093Z,15.65
2022-10-12T06:08:20.324Z,15.95
2022-10-12T06:10:50.715Z,17.58
2022-10-12T06:13:19.776Z,16.95
2022-10-12T06:15:47.460Z,18.05
2022-10-12T06:18:15.577Z,15.90
2022-10-12T06:20:56.537Z,16.73
2022-10-12T06:23:35.992Z,15.10
2022-10-12T06:26:03.209Z,15.18
2022-10-12T06:28:30.397Z,15.85
2022-10-12T06:30:59.778Z,15.55
2022-10-12T06:33:27.778Z,16.85
2022-10-12T06:35:55.449Z,16.05
2022-10-12T06:38:22.929Z,17.73
2022-10-12T06:40:49.911Z,18.17
2022-10-12T06:43:17.044Z,17.55
2022-10-12T06:45:44.094Z,16.05
2022-10-12T06:48:14.869Z,17.25
2022-10-12T06:50:45.087Z,15.75
2022-10-12T06:53:12.084Z,14.40
2022-10-12T06:55:41.978Z,15.32
2022-10-12T06:58:09.067Z,15.48
2022-10-12T07:00:36.528Z,14.82
2022-10-12T07:03:03.992Z,15.00
2022-10-12T07:05:31.038Z,16.02
2022-10-12T07:07:58.197Z,15.68
2022-10-12T07:10:25.543Z,13.38
2022-10-12T07:12:52.557Z,15.02
2022-10-12T07:15:19.707Z,14.52
2022-10-12T07:17:46.710Z,15.05
2022-10-12T07:20:13.909Z,14.77
2022-10-12T07:22:40.837Z,15.13
2022-10-12T07:25:08.397Z,15.00
2022-10-12T07:27:35.539Z,16.25
2022-10-12T07:30:02.862Z,14.52
2022-10-12T07:32:29.903Z,15.85
2022-10-12T07:34:57.258Z,16.75
2022-10-12T07:37:24.169Z,15.50
2022-10-12T07:39:57.215Z,13.02
2022-10-12T07:42:25.464Z,13.95
2022-10-12T07:44:52.560Z,14.10
2022-10-12T07:47:19.850Z,14.40
2022-10-12T07:49:46.868Z,14.65
2022-10-12T07:52:13.839Z,14.20
2022-10-12T07:54:41.461Z,12.27
2022-10-12T07:57:08.990Z,13.38
2022-10-12T07:59:36.009Z,14.25
2022-10-12T08:02:03.145Z,15.27
2022-10-12T08:04:30.279Z,15.65
2022-10-12T08:06:58.119Z,14.90
2022-10-12T08:09:25.193Z,14.55
2022-10-12T08:11:52.185Z,14.43
2022-10-12T08:14:19.104Z,14.32
2022-10-12T08:16:46.233Z,13.73
2022-10-12T08:19:13.785Z,14.50
2022-10-12T08:21:42.755Z,15.27
2022-10-12T08:24:11.141Z,13.38
2022-10-12T08:26:39.082Z,14.05
2022-10-12T08:29:08.425Z,14.50
2022-10-12T08:31:35.988Z,14.15
2022-10-12T08:34:03.747Z,13.88
2022-10-12T08:36:31.004Z,14.25
2022-10-12T08:38:58.062Z,14.55
2022-10-12T08:41:30.760Z,12.88
2022-10-12T08:44:12.838Z,13.48
2022-10-12T08:46:40.110Z,9.82
2022-10-12T08:49:14.368Z,12.43
2022-10-12T08:52:03.372Z,11.65
2022-10-12T08:54:38.939Z,12.15
2022-10-12T08:57:15.363Z,10.57
2022-10-12T08:59:42.317Z,13.63
2022-10-12T09:02:45.082Z,14.43
2022-10-12T09:05:27.656Z,14.32
2022-10-12T09:08:07.145Z,15.13
2022-10-12T09:11:26.703Z,14.60
2022-10-12T09:14:11.304Z,14.05
2022-10-12T09:16:44.473Z,13.65
2022-10-12T09:19:19.513Z,14.35
2022-10-12T09:21:48.571Z,14.80
2022-10-12T09:24:20.025Z,14.35
2022-10-12T09:26:50.643Z,10.95
2022-10-12T09:29:31.560Z,13.75
2022-10-12T09:32:10.654Z,11.30
2022-10-12T09:34:37.896Z,12.70
2022-10-12T09:37:05.602Z,13.63
2022-10-12T09:39:36.201Z,12.65
2022-10-12T09:42:03.193Z,13.98
2022-10-12T09:44:36.165Z,13.90
2022-10-12T09:47:06.478Z,13.38
2022-10-12T09:49:50.972Z,12.85
2022-10-12T09:52:23.155Z,13.70
2022-10-12T09:55:04.879Z,13.65
2022-10-12T09:57:41.872Z,13.38
2022-10-12T10:00:35.015Z,12.68
2022-10-12T10:03:03.090Z,13.25
2022-10-12T10:05:38.020Z,12.45
2022-10-12T10:08:14.314Z,12.80
2022-10-12T10:10:53.148Z,11.52
2022-10-12T10:13:22.338Z,11.68
2022-10-12T10:15:52.216Z,11.40
2022-10-12T10:18:25.423Z,10.50
2022-10-12T10:20:56.031Z,12.10
2022-10-12T10:23:39.579Z,10.63
2022-10-12T10:26:08.335Z,11.25
2022-10-12T10:28:38.102Z,9.48
2022-10-12T10:31:07.909Z,12.48
2022-10-12T10:33:36.499Z,9.52
2022-10-12T10:36:06.613Z,9.40
2022-10-12T10:38:54.256Z,8.90
2022-10-12T10:41:27.526Z,10.05
2022-10-12T10:43:54.995Z,8.38
2022-10-12T10:46:31.939Z,7.95
2022-10-12T10:49:07.493Z,8.75
2022-10-12T10:51:49.503Z,8.80
2022-10-12T10:54:24.873Z,9.68
2022-10-12T10:57:02.705Z,8.55
2022-10-12T11:00:02.225Z,8.02
2022-10-12T11:02:58.609Z,7.32
2022-10-12T11:05:30.527Z,7.72
2022-10-12T11:08:20.348Z,8.27
2022-10-12T11:11:02.829Z,8.65
2022-10-12T11:13:44.875Z,7.32
2022-10-12T11:16:29.139Z,7.57
2022-10-12T11:18:59.088Z,6.97
2022-10-12T11:21:51.558Z,7.72
2022-10-12T11:24:20.789Z,8.27
2022-10-12T11:27:05.856Z,7.68
2022-10-12T11:29:36.105Z,6.97
2022-10-12T11:32:08.202Z,7.30
2022-10-12T11:34:48.810Z,6.55
2022-10-12T11:37:22.636Z,7.25
2022-10-12T11:39:53.831Z,7.53
2022-10-12T11:42:31.357Z,7.45
2022-10-12T11:45:02.407Z,7.10
2022-10-12T11:47:47.388Z,6.38
2022-10-12T11:50:45.633Z,7.22
2022-10-12T11:53:34.591Z,6.72
2022-10-12T11:56:19.759Z,5.88
2022-10-12T11:59:00.543Z,6.57
2022-10-12T12:01:58.275Z,6.68
2022-10-12T12:04:43.605Z,6.57
2022-10-12T12:07:23.337Z,6.40
2022-10-12T12:09:51.903Z,6.60
2022-10-12T12:12:25.531Z,5.97
2022-10-12T12:14:55.487Z,5.78
2022-10-12T12:17:22.517Z,6.30
2022-10-12T12:19:54.612Z,6.15
2022-10-12T12:22:36.915Z,6.15
2022-10-12T12:25:13.042Z,5.85
2022-10-12T12:27:51.511Z,5.85
2022-10-12T12:30:18.533Z,5.70
2022-10-12T12:32:50.973Z,6.43
2022-10-12T12:35:52.235Z,5.60
2022-10-12T12:38:30.738Z,5.55
2022-10-12T12:41:09.184Z,5.60
2022-10-12T12:43:49.254Z,6.43
2022-10-12T12:46:17.012Z,5.57
2022-10-12T12:48:43.966Z,6.18
2022-10-12T12:51:28.531Z,5.57
2022-10-12T12:54:02.060Z,5.47
2022-10-12T12:56:44.240Z,5.68
2022-10-12T12:59:35.783Z,5.60
2022-10-12T13:02:40.500Z,5.32
2022-10-12T13:05:41.353Z,5.28
2022-10-12T13:08:32.828Z,5.57
2022-10-12T13:11:22.572Z,5.43
2022-10-12T13:14:20.164Z,5.88
2022-10-12T13:17:30.659Z,6.35
2022-10-12T13:19:36.663Z,5.22
2022-10-12T13:22:21.141Z,5.88
2022-10-12T13:24:57.798Z,5.65
2022-10-12T13:27:34.044Z,5.88
2022-10-12T13:30:07.309Z,5.40
2022-10-12T13:32:42.509Z,5.38
2022-10-12T13:35:18.900Z,5.15
2022-10-12T13:37:45.936Z,5.55
2022-10-12T13:40:35.997Z,5.00
2022-10-12T13:43:29.025Z,5.07
2022-10-12T13:45:56.525Z,5.22
2022-10-12T13:48:53.791Z,5.63
2022-10-12T13:51:24.118Z,5.55
2022-10-12T13:53:51.064Z,5.18
2022-10-12T13:56:25.050Z,3.88
2022-10-12T13:59:05.368Z,2.47
2022-10-12T14:01:51.987Z,2.47
2022-10-12T14:04:19.144Z,2.88
2022-10-12T14:07:17.917Z,2.30
2022-10-12T14:09:51.848Z,2.53
2022-10-12T14:12:24.517Z,2.35
2022-10-12T14:14:53.234Z,2.33
2022-10-12T14:17:21.160Z,2.40
2022-10-12T14:19:55.323Z,2.20
2022-10-12T14:22:29.910Z,2.07
2022-10-12T14:25:08.966Z,2.10
2022-10-12T14:27:38.861Z,2.83
2022-10-12T14:30:17.563Z,2.10
2022-10-12T14:32:44.923Z,1.83
2022-10-12T14:35:21.847Z,1.90
2022-10-12T14:37:50.929Z,2.55
2022-10-12T14:40:39.598Z,2.35
2022-10-12T14:43:27.941Z,1.73
2022-10-12T14:45:54.956Z,2.00
2022-10-12T14:48:23.523Z,1.77
2022-10-12T14:50:51.041Z,3.88
2022-10-12T14:53:17.962Z,4.30
2022-10-12T14:55:44.977Z,2.50
2022-10-12T14:58:16.943Z,2.00
2022-10-12T15:00:44.399Z,1.90
2022-10-12T15:03:11.478Z,2.15
2022-10-12T15:05:38.486Z,2.75
2022-10-12T15:08:09.142Z,2.30
2022-10-12T15:10:37.400Z,2.30
2022-10-12T15:13:04.391Z,2.10
2022-10-12T15:15:42.755Z,2.45
2022-10-12T15:18:10.040Z,2.15
2022-10-12T15:20:37.767Z,2.50
2022-10-12T15:23:05.770Z,2.25
2022-10-12T15:25:35.561Z,2.60
2022-10-12T15:28:04.003Z,2.00
2022-10-12T15:30:31.942Z,2.22
2022-10-12T15:32:58.887Z,2.30
2022-10-12T15:35:28.192Z,2.70
2022-10-12T15:37:58.266Z,2.92
2022-10-12T15:40:28.529Z,2.75
2022-10-12T15:42:55.673Z,2.38
2022-10-12T15:45:24.100Z,2.83
2022-10-12T15:47:52.331Z,2.50
2022-10-12T15:50:23.577Z,2.40
2022-10-12T15:52:50.917Z,2.22
2022-10-12T15:55:21.312Z,2.50
2022-10-12T15:57:48.938Z,2.67
2022-10-12T16:00:17.797Z,2.40
2022-10-12T16:02:45.717Z,2.42
2022-10-12T16:05:31.075Z,2.53
2022-10-12T16:10:39.239Z,2.45
2022-10-12T16:13:08.604Z,2.45
2022-10-12T16:15:36.629Z,2.28
2022-10-12T16:18:04.942Z,2.10
2022-10-12T16:20:33.899Z,2.38
2022-10-12T16:23:01.531Z,2.20
2022-10-12T16:25:29.024Z,2.53
2022-10-12T16:27:57.467Z,2.42
2022-10-12T16:30:25.449Z,2.13
2022-10-12T16:32:53.214Z,2.28
2022-10-12T16:35:23.236Z,2.45
2022-10-12T16:37:50.295Z,2.30
2022-10-12T16:40:17.242Z,2.75
2022-10-12T16:42:44.241Z,2.28
2022-10-12T16:45:12.086Z,2.70
2022-10-12T16:47:42.725Z,2.30
2022-10-12T16:50:10.656Z,3.03
2022-10-12T16:52:37.714Z,2.85
2022-10-12T16:55:05.914Z,2.58
2022-10-12T16:57:32.830Z,3.03
2022-10-12T17:00:00.037Z,2.70
2022-10-12T17:02:29.974Z,3.20
2022-10-12T17:04:56.824Z,3.40
2022-10-12T17:07:23.820Z,3.30
2022-10-12T17:09:51.688Z,3.25
2022-10-12T17:12:19.062Z,3.45
2022-10-12T17:14:46.172Z,3.53
2022-10-12T17:17:13.116Z,4.05
2022-10-12T17:19:40.917Z,3.10
2022-10-12T17:22:10.404Z,3.90
2022-10-12T17:24:39.194Z,4.72
2022-10-12T17:27:07.674Z,3.90
2022-10-12T17:29:40.306Z,3.83
2022-10-12T17:32:10.130Z,3.60
2022-10-12T17:34:44.902Z,3.72
2022-10-12T17:37:13.829Z,3.78
2022-10-12T17:39:44.998Z,4.18
2022-10-12T17:42:12.528Z,4.00
2022-10-12T17:44:39.378Z,4.07
2022-10-12T17:47:06.393Z,4.22
2022-10-12T17:49:33.603Z,3.65
2022-10-12T17:52:00.486Z,3.70
2022-10-12T17:54:27.510Z,4.05
2022-10-12T17:56:55.991Z,4.05
2022-10-12T17:59:23.075Z,3.92
2022-10-12T18:01:51.773Z,4.35
2022-10-12T18:04:19.672Z,4.20
2022-10-12T18:06:47.069Z,3.95
2022-10-12T18:09:14.102Z,3.85
2022-10-12T18:11:41.411Z,3.53
2022-10-12T18:14:10.176Z,3.60
2022-10-12T18:16:37.825Z,3.95
2022-10-12T18:19:06.820Z,3.80
2022-10-12T18:21:34.463Z,4.13
2022-10-12T18:24:07.115Z,3.80
2022-10-12T18:26:34.327Z,3.83
2022-10-12T18:29:02.547Z,4.18
2022-10-12T18:31:30.336Z,3.85
2022-10-12T18:33:59.313Z,4.53
2022-10-12T18:36:27.504Z,4.32
2022-10-12T18:38:54.946Z,3.92
2022-10-12T18:41:23.654Z,4.22
2022-10-12T18:43:55.479Z,4.47
2022-10-12T18:46:22.394Z,4.38
2022-10-12T18:48:49.503Z,3.97
2022-10-12T18:51:20.955Z,4.28
2022-10-12T18:53:48.418Z,4.22
2022-10-12T18:56:15.676Z,4.22
2022-10-12T18:58:42.678Z,4.10
2022-10-12T19:01:20.013Z,3.75
2022-10-12T19:03:48.415Z,4.80
2022-10-12T19:06:21.948Z,3.88
2022-10-12T19:08:49.570Z,4.25
2022-10-12T19:11:18.783Z,3.83
2022-10-12T19:13:55.102Z,3.75
2022-10-12T19:16:22.798Z,3.78
2022-10-12T19:18:54.707Z,3.53
2022-10-12T19:21:21.661Z,4.03
2022-10-12T19:23:48.675Z,3.65
2022-10-12T19:26:23.169Z,3.78
2022-10-12T19:28:51.756Z,3.10
2022-10-12T19:31:25.383Z,2.80
2022-10-12T19:33:58.770Z,2.28
2022-10-12T19:36:26.229Z,2.70
2022-10-12T19:38:57.087Z,2.45
2022-10-12T19:41:25.163Z,1.75
2022-10-12T19:43:53.431Z,2.20
2022-10-12T19:46:20.805Z,1.75
2022-10-12T19:48:50.252Z,2.17
2022-10-12T19:51:18.382Z,2.78
2022-10-12T19:53:45.692Z,1.77
2022-10-12T19:56:20.995Z,1.48
2022-10-12T19:58:50.693Z,2.05
2022-10-12T20:01:20.857Z,1.67
2022-10-12T20:03:50.056Z,1.40
2022-10-12T20:06:19.379Z,1.52
2022-10-12T20:08:46.836Z,1.40
2022-10-12T20:11:19.612Z,1.60
2022-10-12T20:13:49.221Z,1.60
2022-10-12T20:16:18.687Z,1.55
2022-10-12T20:18:45.988Z,1.35
2022-10-12T20:21:15.493Z,1.60
2022-10-12T20:23:43.312Z,1.45
2022-10-12T20:26:15.076Z,1.67
2022-10-12T20:28:42.299Z,1.27
2022-10-12T20:31:09.895Z,1.58
2022-10-12T20:33:38.807Z,1.55
2022-10-12T20:36:18.664Z,1.55
2022-10-12T20:38:45.630Z,1.58
2022-10-12T20:41:15.156Z,1.35
2022-10-12T20:43:42.649Z,1.20
2022-10-12T20:46:13.489Z,0.90
2022-10-12T20:48:41.165Z,1.50
2022-10-12T20:51:09.812Z,1.40
2022-10-12T20:53:37.932Z,1.63
2022-10-12T20:56:08.894Z,1.33
2022-10-12T20:58:35.880Z,1.27
2022-10-12T21:01:07.698Z,1.10
2022-10-12T21:03:35.111Z,1.25
2022-10-12T21:06:07.124Z,1.17
2022-10-12T21:08:34.783Z,1.40
2022-10-12T21:11:03.218Z,1.20
2022-10-12T21:13:34.942Z,1.00
2022-10-12T21:16:02.074Z,1.15
2022-10-12T21:18:32.849Z,1.60
2022-10-12T21:21:25.272Z,1.08
2022-10-12T21:23:57.516Z,1.30
2022-10-12T21:26:28.467Z,1.30
2022-10-12T21:28:55.611Z,1.20
2022-10-12T21:31:23.411Z,1.27
2022-10-12T21:33:51.503Z,1.23
2022-10-12T21:36:22.149Z,1.17
2022-10-12T21:38:50.305Z,1.27
2022-10-12T21:41:20.606Z,1.60
2022-10-12T21:43:49.198Z,1.25
2022-10-12T21:46:27.527Z,1.30
2022-10-12T21:48:55.309Z,1.67
2022-10-12T21:51:23.894Z,1.25
2022-10-12T21:53:51.266Z,1.30
2022-10-12T21:56:21.478Z,1.60
2022-10-12T21:58:49.447Z,1.48
2022-10-12T22:01:19.013Z,1.35
2022-10-12T22:03:46.410Z,1.10
2022-10-12T22:06:15.712Z,1.55
2022-10-12T22:08:43.620Z,1.73
2022-10-12T22:11:13.571Z,1.20
2022-10-12T22:13:40.717Z,1.27
2022-10-12T22:16:10.948Z,1.48
2022-10-12T22:18:38.144Z,1.33
2022-10-12T22:21:14.518Z,1.35
2022-10-12T22:23:42.880Z,1.60
2022-10-12T22:26:14.098Z,1.40
2022-10-12T22:28:50.827Z,1.55
2022-10-12T22:31:19.896Z,1.83
2022-10-12T22:33:46.985Z,1.45
2022-10-12T22:36:14.922Z,1.88
2022-10-12T22:38:42.446Z,1.83
2022-10-12T22:41:15.315Z,1.85
2022-10-12T22:43:46.395Z,1.58
2022-10-12T22:46:13.411Z,1.83
2022-10-12T22:48:40.433Z,1.52
2022-10-12T22:51:09.350Z,1.80
2022-10-12T22:53:36.721Z,2.03
2022-10-12T22:56:06.687Z,1.85
2022-10-12T22:58:34.988Z,1.73
2022-10-12T23:01:07.485Z,2.00
2022-10-12T23:03:35.710Z,1.60
2022-10-12T23:06:10.513Z,1.50
2022-10-12T23:08:37.831Z,1.55
2022-10-12T23:11:13.727Z,1.70
2022-10-12T23:13:41.462Z,1.70
2022-10-12T23:16:12.734Z,2.03
2022-10-12T23:18:40.271Z,1.52
2022-10-12T23:21:10.526Z,1.70
2022-10-12T23:23:38.853Z,1.90
2022-10-12T23:26:08.860Z,1.85
2022-10-12T23:28:36.305Z,1.75
2022-10-12T23:31:07.886Z,1.77
2022-10-12T23:33:35.724Z,1.60
2022-10-12T23:36:07.311Z,1.83
2022-10-12T23:38:35.824Z,1.50
2022-10-12T23:41:03.273Z,1.60
2022-10-12T23:43:31.074Z,1.63
2022-10-12T23:46:01.578Z,2.13
2022-10-12T23:48:29.171Z,1.60
2022-10-12T23:50:56.690Z,1.67
2022-10-12T23:53:25.488Z,1.60
2022-10-12T23:55:53.102Z,1.13
2022-10-12T23:58:20.872Z,1.58
